Latest Weather Observations for Hopetoun Airport

IDV60801

Issued at 12:31 pm EDT Friday 27 March 2015 (issued every 30 minutes, with the page automatically refreshed every 10 minutes)

About weather observations | Map of weather stations | Latest weather observations for VIC | Other Formats
Station Details ID: 077010 Name: HOPETOUN AIRPORT Lat: -35.72 Lon: 142.36 Height: 77.3 m
Data from the previous 72 hours. | See also: Recent months at Hopetoun Airport
Date/Time
EDT
Temp
°C
App
Temp
°C
Dew
Point
Rel
Hum
%
Delta-T
°C
Wind Press
QNH
hPa
Press
MSL
hPa
Rain
since 9 am
mm
Dir
 
Spd
km/h
Gust
km/h
Spd
kts
Gust
kts
27/12:30pm 16.7 12.5 8.1 57 4.3 WSW 20 32 11 17 1027.1 1026.9 0.0
27/12:00pm 15.8 11.2 8.1 60 3.9 WSW 22 35 12 19 1027.4 1027.2 0.0
27/11:30am 15.9 11.8 8.6 62 3.7 SW 20 28 11 15 1027.6 1027.4 0.0
27/11:00am 14.6 10.4 8.3 66 3.2 WSW 20 28 11 15 1027.7 1027.5 0.0
27/10:30am 14.1 10.0 8.7 70 2.7 SW 20 26 11 14 1027.8 1027.6 0.0
27/10:00am 13.2 8.7 8.7 74 2.2 SW 22 28 12 15 1027.6 1027.4 0.0
27/09:30am 12.0 8.9 8.8 81 1.6 WSW 15 19 8 10 1027.5 1027.3 0.0
27/09:00am 11.2 7.6 8.4 83 1.4 WSW 17 22 9 12 1027.3 1027.1 0.2
27/08:30am 9.6 6.6 7.7 88 0.9 W 13 17 7 9 1027.0 1026.8 0.2
27/08:00am 8.6 5.8 7.1 90 0.7 W 11 15 6 8 1026.6 1026.4 0.2
27/07:30am 8.4 5.3 7.2 92 0.6 W 13 17 7 9 1026.2 1026.0 0.2
27/07:00am 8.2 5.2 6.2 87 0.9 WNW 11 15 6 8 1025.9 1025.7 0.2
27/06:30am 10.0 7.7 7.3 83 1.3 W 9 13 5 7 1025.7 1025.5 0.2
27/06:00am 10.0 7.4 7.6 85 1.1 WSW 11 15 6 8 1025.3 1025.1 0.2
27/05:30am 10.3 7.3 7.5 83 1.3 W 13 17 7 9 1025.2 1025.0 0.2
27/05:00am 10.9 6.6 8.0 82 1.4 WSW 20 26 11 14 1025.0 1024.8 0.2
27/04:30am 11.3 7.1 8.3 82 1.5 SW 20 28 11 15 1025.1 1024.9 0.2
27/04:00am 11.1 6.9 8.1 82 1.5 WSW 20 28 11 15 1025.1 1024.9 0.2
27/03:30am 11.0 6.7 7.7 80 1.6 WSW 20 30 11 16 1025.3 1025.1 0.2
27/03:00am 10.8 6.6 7.5 80 1.6 WSW 19 24 10 13 1025.4 1025.2 0.2
27/02:30am 9.3 6.3 6.2 81 1.4 W 11 15 6 8 1025.6 1025.4 0.2
27/02:00am 9.5 5.8 6.2 80 1.5 W 15 19 8 10 1025.5 1025.3 0.2
27/01:30am 10.0 5.9 6.3 78 1.7 W 17 19 9 10 1025.5 1025.3 0.2
27/01:00am 10.2 6.5 6.4 77 1.8 W 15 20 8 11 1025.3 1025.1 0.2
27/12:30am 10.4 6.3 6.4 76 1.9 W 17 20 9 11 1025.4 1025.2 0.2
27/12:00am 11.1 6.7 6.6 74 2.1 W 19 22 10 12 1025.4 1025.2 0.2
 
Date/Time
EDT
Temp
°C
App
Temp
°C
Dew
Point
Rel
Hum
%
Delta-T
°C
Wind Press
QNH
hPa
Press
MSL
hPa
Rain
since 9 am
mm
Dir
 
Spd
km/h
Gust
km/h
Spd
kts
Gust
kts
26/11:30pm 10.8 6.7 6.2 73 2.2 W 17 22 9 12 1025.6 1025.4 0.2
26/11:00pm 11.1 7.0 6.0 71 2.4 W 17 22 9 12 1025.5 1025.3 0.2
26/10:30pm 11.9 7.5 6.4 69 2.6 W 19 22 10 12 1025.4 1025.2 0.2
26/10:00pm 12.3 7.0 6.6 68 2.7 WSW 24 32 13 17 1025.2 1025.0 0.2
26/09:30pm 13.2 7.0 6.1 62 3.4 WSW 28 39 15 21 1025.0 1024.8 0.2
26/09:00pm 13.1 7.9 5.5 60 3.5 WSW 22 32 12 17 1024.9 1024.7 0.2
26/08:30pm 13.7 7.3 5.1 56 4.0 WSW 28 35 15 19 1024.5 1024.3 0.2
26/08:00pm 15.0 8.1 4.4 49 4.9 WSW 30 37 16 20 1024.1 1023.9 0.2
26/07:30pm 14.9 7.3 3.7 47 5.1 WSW 33 46 18 25 1023.8 1023.6 0.2
26/07:00pm 16.1 6.8 3.2 42 5.9 WSW 41 54 22 29 1023.3 1023.1 0.2
26/06:51pm 16.2 8.0 2.6 40 6.2 WSW 35 54 19 29 1023.2 1023.0 0.2
26/06:30pm 16.6 8.1 3.0 40 6.2 WSW 37 50 20 27 1022.8 1022.6 0.2
26/06:00pm 17.3 8.8 2.9 38 6.6 WSW 37 52 20 28 1022.3 1022.1 0.2
26/05:30pm 17.0 7.6 4.7 44 5.9 WSW 43 56 23 30 1022.3 1022.1 0.2
26/05:00pm 17.3 7.1 3.2 39 6.5 WSW 46 57 25 31 1022.1 1021.9 0.2
26/04:30pm 18.1 8.4 2.8 36 7.1 WSW 43 61 23 33 1022.0 1021.8 0.2
26/04:00pm 19.5 9.6 1.5 30 8.2 WSW 43 61 23 33 1021.8 1021.6 0.2
26/03:56pm 19.9 10.8 1.8 30 8.3 WSW 39 61 21 33 1021.6 1021.4 0.2
26/03:30pm 19.5 10.1 2.4 32 7.9 W 41 54 22 29 1021.7 1021.5 0.2
26/03:00pm 18.0 9.2 1.1 32 7.5 W 37 52 20 28 1021.9 1021.7 0.2
26/02:44pm 18.2 9.3 0.8 31 7.7 W 37 57 20 31 1022.0 1021.8 0.2
26/02:30pm 18.7 8.8 1.7 32 7.7 W 43 57 23 31 1022.1 1021.9 0.2
26/02:00pm 17.7 9.3 1.7 34 7.2 W 35 50 19 27 1022.4 1022.2 0.0
26/01:30pm 17.7 9.4 2.1 35 7.1 WSW 35 50 19 27 1022.4 1022.2 0.0
26/01:00pm 16.1 8.1 1.8 38 6.3 W 33 44 18 24 1022.7 1022.5 0.0
26/12:30pm 16.1 8.2 2.5 40 6.1 WSW 33 46 18 25 1023.0 1022.8 0.0
26/12:00pm 16.0 7.5 3.4 43 5.8 WSW 37 54 20 29 1023.1 1022.9 0.0
26/11:30am 15.7 8.2 4.7 48 5.2 WSW 33 43 18 23 1023.3 1023.1 0.0
26/11:00am 14.4 8.1 5.5 55 4.2 W 28 37 15 20 1023.3 1023.1 0.0
26/10:30am 12.9 7.3 5.3 60 3.5 W 24 33 13 18 1023.1 1022.9 0.0
26/10:00am 12.4 7.3 6.2 66 2.9 W 22 30 12 16 1022.8 1022.6 0.0
26/09:30am 10.6 6.1 6.9 78 1.8 WNW 20 26 11 14 1022.6 1022.4 0.0
26/09:00am 9.0 4.7 6.8 86 1.0 WNW 19 24 10 13 1022.2 1022.0 0.2
26/08:30am 7.5 3.8 6.1 91 0.6 WNW 15 19 8 10 1021.9 1021.7 0.2
26/08:00am 6.2 2.6 5.0 92 0.5 WNW 13 15 7 8 1021.4 1021.2 0.2
26/07:30am 6.1 2.4 4.7 91 0.6 WNW 13 17 7 9 1020.9 1020.7 0.2
26/07:00am 6.4 2.5 5.2 92 0.5 WNW 15 19 8 10 1020.5 1020.3 0.2
26/06:30am 6.5 3.0 5.5 93 0.4 WNW 13 15 7 8 1020.3 1020.1 0.2
26/06:00am 6.6 3.1 5.6 93 0.4 NW 13 15 7 8 1020.1 1019.8 0.2
26/05:30am 6.9 3.5 5.7 92 0.5 NW 13 15 7 8 1019.9 1019.6 0.2
26/05:00am 7.7 4.4 6.5 92 0.5 WNW 13 17 7 9 1019.7 1019.4 0.2
26/04:30am 8.3 4.4 6.9 91 0.7 WNW 17 19 9 10 1019.5 1019.2 0.0
26/04:00am 8.5 5.0 7.3 92 0.6 WNW 15 17 8 9 1019.3 1019.0 0.0
26/03:30am 8.9 5.5 7.5 91 0.7 WNW 15 19 8 10 1019.1 1018.8 0.0
26/03:00am 9.3 6.0 7.9 91 0.7 WNW 15 19 8 10 1019.2 1018.9 0.0
26/02:30am 9.7 6.0 8.1 90 0.8 WNW 17 20 9 11 1019.0 1018.7 0.0
26/02:00am 10.2 7.4 8.6 90 0.8 WNW 13 17 7 9 1019.1 1018.8 0.0
26/01:30am 10.7 8.4 9.1 90 0.8 WNW 11 13 6 7 1018.8 1018.5 0.0
26/01:00am 10.7 8.0 8.8 88 0.9 W 13 17 7 9 1018.7 1018.4 0.0
26/12:30am 10.7 6.8 8.8 88 0.9 WSW 19 22 10 12 1018.8 1018.5 0.0
26/12:00am 10.8 5.1 8.4 85 1.2 WSW 28 35 15 19 1018.7 1018.4 0.0
 
Date/Time
EDT
Temp
°C
App
Temp
°C
Dew
Point
Rel
Hum
%
Delta-T
°C
Wind Press
QNH
hPa
Press
MSL
hPa
Rain
since 9 am
mm
Dir
 
Spd
km/h
Gust
km/h
Spd
kts
Gust
kts
25/11:30pm 11.8 4.8 6.7 71 2.4 WSW 33 44 18 24 1018.8 1018.5 0.0
25/11:00pm 12.3 3.5 8.2 76 2.0 SW 44 61 24 33 1018.6 1018.3 0.0
25/10:30pm 16.0 9.2 9.2 64 3.5 W 35 61 19 33 1017.5 1017.2 0.0
25/10:25pm 16.8 11.5 5.1 46 5.6 WNW 22 52 12 28 1017.2 1016.9 0.0
25/10:00pm 15.9 11.8 2.3 40 6.1 NNW 13 17 7 9 1016.5 1016.2 0.0
25/09:30pm 14.6 10.4 1.5 41 5.7 NNW 13 15 7 8 1016.3 1016.0 0.0
25/09:00pm 15.3 11.1 1.4 39 6.1 N 13 15 7 8 1016.0 1015.8 0.0
25/08:30pm 15.4 11.1 1.2 38 6.2 NNW 13 13 7 7 1015.7 1015.5 0.0
25/08:00pm 17.3 13.1 1.7 35 7.0 NW 13 15 7 8 1016.0 1015.8 0.0
25/07:30pm 18.3 11.7 1.8 33 7.5 WNW 26 33 14 18 1016.0 1015.8 0.0
25/07:00pm 19.7 12.3 2.1 31 8.1 WNW 30 39 16 21 1015.4 1015.2 0.0
25/06:30pm 20.6 13.7 2.4 30 8.5 W 28 35 15 19 1015.2 1015.0 0.0
25/06:00pm 20.7 14.6 2.5 30 8.5 WNW 24 33 13 18 1015.2 1015.0 0.0
25/05:30pm 20.6 14.0 2.0 29 8.6 WNW 26 33 14 18 1015.2 1015.0 0.0
25/05:00pm 19.8 13.9 1.7 30 8.3 WNW 22 32 12 17 1015.4 1015.2 0.0
25/04:30pm 19.9 14.1 2.3 31 8.2 W 22 32 12 17 1015.6 1015.4 0.0
25/04:00pm 20.1 14.8 2.9 32 8.1 W 20 35 11 19 1015.8 1015.6 0.0
25/03:30pm 19.8 15.0 2.6 32 8.0 WNW 17 35 9 19 1016.5 1016.2 0.0
25/03:00pm 19.1 14.0 2.9 34 7.5 W 19 32 10 17 1017.1 1016.8 0.0
25/02:30pm 17.8 13.2 1.7 34 7.3 WSW 15 33 8 18 1017.3 1017.0 0.0
25/02:00pm 17.6 13.1 2.4 36 6.9 W 15 26 8 14 1017.9 1017.6 0.0
25/01:30pm 17.1 13.5 3.1 39 6.5 WSW 11 20 6 11 1018.4 1018.1 0.0
25/01:00pm 16.4 12.4 2.8 40 6.2 W 13 22 7 12 1018.6 1018.3 0.0
25/12:30pm 15.5 11.2 3.0 43 5.7 SW 15 26 8 14 1019.4 1019.1 0.0
25/12:00pm 14.7 9.8 2.3 43 5.5 W 17 28 9 15 1019.9 1019.6 0.0
25/11:30am 14.8 10.9 3.3 46 5.2 SW 13 28 7 15 1020.0 1019.7 0.0
25/11:00am 13.3 9.7 2.8 49 4.6 SW 11 22 6 12 1020.0 1019.7 0.0
25/10:30am 13.5 10.7 3.0 49 4.7 S 7 15 4 8 1020.3 1020.1 0.0
25/10:00am 12.3 9.5 3.0 53 4.1 SSE 7 11 4 6 1020.3 1020.1 0.0
25/09:30am 9.9 7.5 2.3 59 3.2 S 4 7 2 4 1020.5 1020.3 0.0
25/09:00am 7.6 5.5 1.7 66 2.4 ESE 2 4 1 2 1020.2 1019.9 0.0
25/08:30am 5.9 4.1 0.9 70 2.0 CALM 0 0 0 0 1020.2 1019.9 0.0
25/08:00am 4.4 1.3 0.0 73 1.7 SW 6 6 3 3 1020.0 1019.7 0.0
25/07:30am 5.1 1.8 0.1 70 1.9 SSW 7 9 4 5 1019.9 1019.6 0.0
25/07:00am 5.4 2.1 0.4 70 1.9 S 7 9 4 5 1019.8 1019.5 0.0
25/06:30am 6.6 3.0 0.9 67 2.3 S 9 13 5 7 1019.4 1019.1 0.0
25/06:00am 5.9 2.7 0.7 69 2.0 S 7 9 4 5 1019.8 1019.5 0.0
25/05:30am 5.6 2.3 0.4 69 2.0 SSW 7 9 4 5 1019.7 1019.4 0.0
25/05:00am 5.3 2.0 0.1 69 2.0 SSW 7 11 4 6 1019.5 1019.2 0.0
25/04:30am 6.3 2.7 0.6 67 2.2 S 9 11 5 6 1019.5 1019.2 0.0
25/04:00am 6.3 2.7 0.8 68 2.2 S 9 13 5 7 1019.6 1019.3 0.0
25/03:30am 5.8 2.2 0.4 68 2.1 SSW 9 11 5 6 1019.7 1019.4 0.0
25/03:00am 7.0 3.5 1.1 66 2.4 S 9 11 5 6 1019.8 1019.5 0.0
25/02:30am 6.5 3.2 0.4 65 2.4 SSW 7 11 4 6 1020.4 1020.2 0.0
25/02:00am 6.7 3.5 0.6 65 2.4 SSW 7 15 4 8 1020.4 1020.2 0.0
25/01:30am 8.6 4.8 1.5 61 2.9 SSE 11 17 6 9 1020.1 1019.8 0.0
25/01:00am 8.7 5.3 1.6 61 2.9 S 9 13 5 7 1020.5 1020.3 0.0
25/12:30am 9.5 6.5 1.9 59 3.2 S 7 11 4 6 1020.9 1020.7 0.0
25/12:00am 10.1 6.3 2.0 57 3.4 S 11 13 6 7 1021.0 1020.8 0.0
 
Date/Time
EDT
Temp
°C
App
Temp
°C
Dew
Point
Rel
Hum
%
Delta-T
°C
Wind Press
QNH
hPa
Press
MSL
hPa
Rain
since 9 am
mm
Dir
 
Spd
km/h
Gust
km/h
Spd
kts
Gust
kts
24/11:30pm 10.3 7.0 2.2 57 3.4 S 9 11 5 6 1021.1 1020.9 0.0
24/11:00pm 10.8 7.5 2.4 56 3.6 SSE 9 13 5 7 1021.0 1020.8 0.0
24/10:30pm 11.4 7.7 2.4 54 3.9 S 11 15 6 8 1021.3 1021.1 0.0
24/10:00pm 12.1 8.4 2.6 52 4.1 S 11 13 6 7 1021.2 1021.0 0.0
24/09:30pm 12.9 9.3 2.7 50 4.5 S 11 13 6 7 1021.2 1021.0 0.0
24/09:00pm 13.4 9.0 2.6 48 4.8 S 15 19 8 10 1020.8 1020.6 0.0
24/08:30pm 14.3 9.9 2.9 46 5.1 S 15 20 8 11 1020.6 1020.4 0.0
24/08:00pm 15.2 9.1 2.7 43 5.6 S 24 35 13 19 1020.1 1019.8 0.0
24/07:30pm 15.3 9.9 2.5 42 5.7 SSE 20 33 11 18 1019.7 1019.4 0.0
24/07:00pm 16.2 9.7 2.6 40 6.1 SSE 26 35 14 19 1019.4 1019.1 0.0
24/06:30pm 17.0 10.6 3.3 40 6.3 SSE 26 35 14 19 1018.9 1018.6 0.0
24/06:00pm 17.4 10.9 2.6 37 6.7 S 26 35 14 19 1018.9 1018.6 0.0
24/05:30pm 17.6 10.4 2.8 37 6.8 S 30 41 16 22 1018.6 1018.3 0.0
24/05:00pm 17.4 11.8 3.3 39 6.5 S 22 32 12 17 1018.8 1018.5 0.0
24/04:30pm 17.4 10.6 3.3 39 6.5 SSW 28 39 15 21 1019.0 1018.7 0.0
24/04:00pm 17.1 11.6 4.1 42 6.1 S 22 35 12 19 1019.0 1018.7 0.0
24/03:30pm 16.8 11.0 4.5 44 5.8 SSW 24 37 13 20 1019.2 1018.9 0.0
24/03:00pm 16.9 11.1 4.3 43 5.9 S 24 37 13 20 1019.1 1018.8 0.0
24/02:30pm 16.3 10.2 4.7 46 5.5 SSW 26 39 14 21 1019.3 1019.0 0.0
24/02:00pm 17.4 11.8 5.4 45 5.8 SSW 24 41 13 22 1019.5 1019.2 0.0
24/01:30pm 16.5 10.5 5.5 48 5.3 SSW 26 39 14 21 1019.7 1019.4 0.0
24/01:00pm 16.9 10.9 3.6 41 6.2 SW 24 33 13 18 1019.7 1019.4 0.0

Other Formats:

Comma delimited format used in spreadsheet applications
http://www.bom.gov.au/fwo/IDV60801/IDV60801.94838.axf

JavaScript Object Notation format (JSON) in row-major order
http://www.bom.gov.au/fwo/IDV60801/IDV60801.94838.json